Time;durP1;ratioP1;P1;durP2;ratioP2;P2;SDS_P1;SDS_P2;PMS_P1;PMS_P2;Temp;Humidity;BMP_temperature;BMP_pressure;BME280_temperature;BME280_humidity;BME280_pressure;Samples;Min_cycle;Max_cycle;Signal;HPM_P1;HPM_P2
2024/02/28 00:00:26;;;;;;;25.83;11.77;;;6.30;99.90;6.10;100687.00;;;;4908481;28;108605;-66
2024/02/28 00:02:51;;;;;;;20.60;9.13;;;6.30;99.90;6.10;100695.00;;;;4911642;28;109709;-66
2024/02/28 00:05:17;;;;;;;17.40;9.70;;;6.60;99.90;6.10;100686.00;;;;4908989;28;122049;-66
2024/02/28 00:07:43;;;;;;;12.57;8.80;;;6.30;99.90;6.10;100695.00;;;;4904334;28;121664;-66
2024/02/28 00:10:09;;;;;;;13.30;8.93;;;6.30;99.90;6.00;100693.00;;;;4908284;28;93349;-67
2024/02/28 00:12:35;;;;;;;15.30;9.37;;;6.20;99.90;6.00;100691.00;;;;4908655;28;108971;-67
2024/02/28 00:15:01;;;;;;;14.10;8.77;;;6.20;99.90;6.10;100693.00;;;;4912880;28;94028;-67
2024/02/28 00:17:26;;;;;;;16.47;8.63;;;6.30;99.90;6.00;100692.00;;;;4914506;28;93789;-69
2024/02/28 00:19:52;;;;;;;13.53;9.00;;;6.10;99.90;6.00;100708.00;;;;4905346;28;109379;-69
2024/02/28 00:22:18;;;;;;;17.03;9.93;;;6.20;99.90;6.00;100703.00;;;;4906217;28;107826;-68
2024/02/28 00:24:43;;;;;;;20.67;10.30;;;6.10;99.90;6.00;100700.00;;;;4904247;28;122493;-69
2024/02/28 00:27:09;;;;;;;12.07;9.37;;;6.20;99.90;6.00;100701.00;;;;4904701;28;93783;-69
2024/02/28 00:29:37;;;;;;;16.23;9.07;;;6.60;99.90;6.00;100694.00;;;;4911136;28;113851;-68
2024/02/28 00:32:03;;;;;;;16.37;10.07;;;6.20;99.90;6.00;100697.00;;;;4909386;28;107857;-67
2024/02/28 00:34:29;;;;;;;17.70;9.87;;;6.20;99.90;6.00;100698.00;;;;4903722;28;93242;-67
2024/02/28 00:36:54;;;;;;;22.37;10.23;;;6.80;99.90;6.00;100692.00;;;;4906191;28;123441;-67
2024/02/28 00:39:20;;;;;;;16.20;9.77;;;7.00;99.90;6.00;100697.00;;;;4904887;28;108331;-66
2024/02/28 00:41:46;;;;;;;18.10;10.50;;;7.00;99.90;6.00;100697.00;;;;4909914;28;107721;-67
2024/02/28 00:44:11;;;;;;;21.13;10.17;;;6.10;99.90;6.00;100704.00;;;;4907369;28;122638;-66
2024/02/28 00:46:39;;;;;;;14.13;11.10;;;6.90;99.90;6.00;100689.00;;;;4904930;28;93013;-66
2024/02/28 00:49:04;;;;;;;22.47;9.67;;;6.10;99.90;6.00;100699.00;;;;4908525;28;92562;-66
2024/02/28 00:51:30;;;;;;;15.63;8.43;;;6.20;99.90;6.00;100698.00;;;;4912856;28;108383;-66
2024/02/28 00:53:56;;;;;;;20.37;10.27;;;6.20;99.90;6.00;100688.00;;;;4911264;28;94058;-68
2024/02/28 00:56:22;;;;;;;27.17;10.73;;;6.60;99.90;6.00;100694.00;;;;4906219;28;95945;-68
2024/02/28 00:58:47;;;;;;;20.07;9.93;;;6.20;99.90;6.00;100694.00;;;;4907098;28;113192;-68
2024/02/28 01:01:13;;;;;;;18.23;10.23;;;6.90;99.90;6.00;100693.00;;;;4912022;28;107899;-68
2024/02/28 01:03:39;;;;;;;15.83;11.17;;;6.60;99.90;6.00;100692.00;;;;4907128;28;121711;-68
2024/02/28 01:06:04;;;;;;;14.80;9.70;;;7.00;99.90;6.00;100692.00;;;;4900389;28;93659;-68
2024/02/28 01:08:30;;;;;;;14.77;9.17;;;6.20;99.90;6.00;100697.00;;;;4912456;28;113213;-69
2024/02/28 01:10:56;;;;;;;15.43;10.47;;;6.60;99.90;6.00;100694.00;;;;4909401;28;109045;-68
2024/02/28 01:13:23;;;;;;;12.60;8.13;;;6.10;99.90;6.00;100697.00;;;;4903865;28;94054;-68
2024/02/28 01:15:48;;;;;;;14.77;9.10;;;6.20;99.90;6.10;100697.00;;;;4908045;28;93974;-68
2024/02/28 01:18:14;;;;;;;12.13;8.37;;;6.60;99.90;6.00;100693.00;;;;4906552;28;111438;-68
2024/02/28 01:20:39;;;;;;;19.00;9.30;;;6.20;99.90;6.10;100696.00;;;;4911505;28;106781;-69
2024/02/28 01:23:05;;;;;;;17.03;10.20;;;6.20;99.90;6.00;100692.00;;;;4907257;28;120486;-68
2024/02/28 01:25:37;;;;;;;21.27;10.33;;;6.40;99.90;6.10;100697.00;;;;4910023;28;122990;-68
2024/02/28 01:28:04;;;;;;;16.87;9.33;;;6.30;99.90;6.10;100699.00;;;;4909495;28;93177;-68
2024/02/28 01:30:30;;;;;;;18.53;9.57;;;6.20;99.90;6.10;100695.00;;;;4910787;28;107982;-68
2024/02/28 01:32:55;;;;;;;23.50;10.10;;;6.60;99.90;6.10;100697.00;;;;4914598;28;119916;-68
2024/02/28 01:35:21;;;;;;;18.23;11.23;;;6.20;99.90;6.10;100692.00;;;;4907994;28;121595;-68
2024/02/28 01:37:47;;;;;;;16.20;8.43;;;6.20;99.90;6.10;100700.00;;;;4913267;28;93466;-69
2024/02/28 01:40:13;;;;;;;18.67;8.57;;;6.30;99.90;6.10;100698.00;;;;4925262;28;94624;-68
2024/02/28 01:42:39;;;;;;;11.97;8.40;;;6.20;99.90;6.10;100692.00;;;;4913833;28;114834;-68
2024/02/28 01:45:13;;;;;;;17.20;8.57;;;7.10;99.90;6.10;100698.00;;;;4912015;28;123050;-68
2024/02/28 01:47:39;;;;;;;18.17;10.57;;;6.20;99.90;6.10;100687.00;;;;4912371;28;92805;-69
2024/02/28 01:50:05;;;;;;;17.47;9.37;;;6.60;99.90;6.10;100695.00;;;;4908889;28;93296;-68
2024/02/28 01:52:34;;;;;;;21.67;9.83;;;6.30;99.90;6.10;100695.00;;;;4911976;28;116266;-68
2024/02/28 01:54:59;;;;;;;13.43;9.37;;;6.20;99.90;6.10;100704.00;;;;4914147;28;122300;-68
2024/02/28 01:57:27;;;;;;;15.10;8.90;;;6.60;99.90;6.10;100690.00;;;;4909545;28;110203;-68
2024/02/28 01:59:54;;;;;;;18.03;9.60;;;6.30;99.90;6.10;100687.00;;;;4909345;28;93140;-68
2024/02/28 02:02:20;;;;;;;20.60;10.00;;;6.80;99.90;6.10;100688.00;;;;4910442;28;93784;-68
2024/02/28 02:04:46;;;;;;;21.00;11.03;;;6.60;99.90;6.10;100682.00;;;;4901451;28;122600;-68
2024/02/28 02:07:11;;;;;;;21.93;11.07;;;6.30;99.90;6.10;100689.00;;;;4909185;28;112319;-68
2024/02/28 02:09:37;;;;;;;22.83;11.73;;;6.90;99.90;6.10;100689.00;;;;4907868;28;95512;-68
2024/02/28 02:12:03;;;;;;;20.67;11.30;;;6.30;99.90;6.10;100697.00;;;;4908855;28;93199;-68
2024/02/28 02:14:28;;;;;;;13.57;9.60;;;6.30;99.90;6.10;100684.00;;;;4911804;28;122881;-68
2024/02/28 02:16:54;;;;;;;17.07;9.30;;;6.30;99.90;6.10;100694.00;;;;4912732;28;112546;-68
2024/02/28 02:19:20;;;;;;;18.60;10.23;;;6.20;99.90;6.10;100696.00;;;;4908102;28;107726;-68
2024/02/28 02:21:53;;;;;;;15.73;9.03;;;6.30;99.90;6.00;100682.00;;;;4914108;28;92885;-68
2024/02/28 02:24:18;;;;;;;15.80;9.93;;;7.10;99.90;6.00;100685.00;;;;4912072;28;92885;-68
2024/02/28 02:26:46;;;;;;;13.67;9.00;;;6.20;99.90;6.00;100694.00;;;;4907935;28;111204;-68
2024/02/28 02:29:13;;;;;;;11.40;8.17;;;6.20;99.90;6.00;100687.00;;;;4909744;28;97113;-68
2024/02/28 02:31:38;;;;;;;16.83;9.50;;;6.20;99.90;6.00;100691.00;;;;4911923;28;93671;-68
2024/02/28 02:34:04;;;;;;;18.37;9.67;;;6.20;99.90;6.00;100682.00;;;;4906325;28;116413;-68
2024/02/28 02:36:30;;;;;;;17.80;9.53;;;6.20;99.90;6.00;100690.00;;;;4907748;28;93031;-68
2024/02/28 02:38:55;;;;;;;14.93;9.23;;;6.20;99.90;6.10;100676.00;;;;4908088;28;108811;-69
2024/02/28 02:41:21;;;;;;;19.70;9.33;;;6.50;99.90;6.10;100683.00;;;;4909022;28;92986;-69
2024/02/28 02:43:47;;;;;;;13.83;7.33;;;6.10;99.90;6.10;100685.00;;;;4905276;28;126292;-69
2024/02/28 02:46:12;;;;;;;15.37;8.93;;;6.20;99.90;6.10;100682.00;;;;4910420;28;110334;-69
2024/02/28 02:48:38;;;;;;;16.40;8.63;;;6.20;99.90;6.10;100685.00;;;;4906272;28;107843;-69
2024/02/28 02:51:04;;;;;;;15.33;9.83;;;7.20;99.90;6.10;100680.00;;;;4910322;28;122835;-66
2024/02/28 02:53:29;;;;;;;18.73;8.70;;;6.20;99.90;6.10;100684.00;;;;4910427;28;117483;-67
2024/02/28 02:55:55;;;;;;;17.70;9.63;;;6.00;99.90;6.10;100691.00;;;;4907925;28;104594;-69
2024/02/28 02:58:20;;;;;;;23.90;9.30;;;6.60;99.90;6.00;100686.00;;;;4909677;28;108442;-68
2024/02/28 03:00:46;;;;;;;14.80;8.53;;;6.20;99.90;6.00;100690.00;;;;4907253;28;121687;-67
2024/02/28 03:03:12;;;;;;;14.63;9.53;;;6.20;99.90;6.00;100688.00;;;;4906863;28;123254;-66
2024/02/28 03:05:37;;;;;;;14.80;8.47;;;6.10;99.90;5.90;100688.00;;;;4912397;28;101968;-67
2024/02/28 03:08:03;;;;;;;16.03;11.03;;;7.00;99.90;5.90;100690.00;;;;4909842;28;108774;-66
2024/02/28 03:10:29;;;;;;;17.57;8.77;;;6.10;99.90;5.90;100687.00;;;;4906778;28;92818;-67
2024/02/28 03:12:55;;;;;;;14.87;7.67;;;6.00;99.90;5.90;100696.00;;;;4904969;28;121345;-66
2024/02/28 03:15:20;;;;;;;10.73;7.90;;;6.00;99.90;5.80;100693.00;;;;4908172;28;109747;-66
2024/02/28 03:17:46;;;;;;;15.10;8.97;;;6.80;99.90;5.80;100700.00;;;;4908120;28;109189;-66
2024/02/28 03:20:14;;;;;;;15.20;9.13;;;6.10;99.90;5.70;100700.00;;;;4910631;28;93106;-68
2024/02/28 03:22:40;;;;;;;9.47;6.93;;;5.90;99.90;5.70;100700.00;;;;4912181;28;93920;-67
2024/02/28 03:25:06;;;;;;;13.43;7.27;;;5.90;99.90;5.70;100708.00;;;;4915179;28;92853;-66
2024/02/28 03:27:32;;;;;;;15.77;8.30;;;5.90;99.90;5.70;100705.00;;;;4914948;28;92871;-65
2024/02/28 03:29:58;;;;;;;15.17;8.93;;;5.80;99.90;5.60;100716.00;;;;4916864;28;123523;-65
2024/02/28 03:32:23;;;;;;;10.90;6.93;;;5.80;99.90;5.60;100703.00;;;;4912226;28;122428;-65
2024/02/28 03:34:49;;;;;;;15.57;7.03;;;5.80;99.90;5.60;100714.00;;;;4916746;28;109801;-65
2024/02/28 03:37:15;;;;;;;16.13;7.90;;;5.70;99.90;5.50;100714.00;;;;4909895;28;108852;-65
2024/02/28 03:39:40;;;;;;;11.70;7.43;;;5.80;99.90;5.50;100712.00;;;;4909597;28;122414;-65
2024/02/28 03:42:06;;;;;;;10.77;6.50;;;5.70;99.90;5.50;100723.00;;;;4908492;28;122476;-65
2024/02/28 03:44:32;;;;;;;10.87;6.27;;;6.00;99.90;5.40;100716.00;;;;4906415;28;110168;-65
2024/02/28 03:46:58;;;;;;;9.57;7.03;;;5.70;99.90;5.40;100721.00;;;;4908691;28;108671;-66
2024/02/28 03:49:23;;;;;;;12.87;5.87;;;6.30;99.90;5.40;100730.00;;;;4909653;28;97268;-66
2024/02/28 03:51:49;;;;;;;11.57;7.33;;;5.60;99.90;5.50;100734.00;;;;4908210;28;122523;-66
2024/02/28 03:54:14;;;;;;;10.30;6.20;;;5.60;99.90;5.40;100734.00;;;;4910454;28;110564;-66
2024/02/28 03:56:40;;;;;;;10.43;6.33;;;5.60;99.90;5.40;100746.00;;;;4911880;28;108886;-66
2024/02/28 03:59:06;;;;;;;12.13;7.97;;;5.60;99.90;5.40;100737.00;;;;4906312;28;120574;-66
2024/02/28 04:01:31;;;;;;;8.30;6.50;;;5.80;99.90;5.30;100745.00;;;;4906012;28;121988;-65
2024/02/28 04:03:57;;;;;;;8.03;5.80;;;6.20;99.90;5.30;100738.00;;;;4904900;28;95795;-65
2024/02/28 04:06:23;;;;;;;13.57;6.63;;;6.10;99.90;5.30;100743.00;;;;4905691;28;93798;-66
2024/02/28 04:08:49;;;;;;;13.83;6.97;;;6.00;99.90;5.30;100752.00;;;;4908796;28;114333;-65
2024/02/28 04:11:15;;;;;;;8.37;5.77;;;5.60;99.90;5.30;100749.00;;;;4908632;28;104343;-66
2024/02/28 04:13:40;;;;;;;13.60;6.90;;;5.40;99.90;5.30;100750.00;;;;4907469;28;110808;-66
2024/02/28 04:16:09;;;;;;;13.30;6.87;;;5.60;99.90;5.30;100756.00;;;;4922661;28;108102;-66
2024/02/28 04:18:35;;;;;;;14.77;6.60;;;6.30;99.90;5.30;100762.00;;;;4912643;28;93392;-66
2024/02/28 04:21:00;;;;;;;13.13;6.13;;;5.90;99.90;5.30;100757.00;;;;4911339;28;92697;-65
2024/02/28 04:23:26;;;;;;;11.80;7.70;;;5.60;99.90;5.30;100762.00;;;;4906770;28;109286;-66
2024/02/28 04:25:52;;;;;;;8.63;5.67;;;5.50;99.90;5.30;100773.00;;;;4908992;28;108445;-66
2024/02/28 04:28:17;;;;;;;10.90;7.47;;;5.50;99.90;5.40;100781.00;;;;4904906;28;121916;-66
2024/02/28 04:30:43;;;;;;;12.37;6.77;;;5.60;99.90;5.30;100780.00;;;;4906583;28;94054;-66
2024/02/28 04:33:09;;;;;;;13.63;7.50;;;5.60;99.90;5.40;100783.00;;;;4910338;28;93105;-66
2024/02/28 04:35:35;;;;;;;10.97;6.23;;;6.10;99.90;5.30;100785.00;;;;4912461;28;92950;-66
2024/02/28 04:38:00;;;;;;;8.27;5.33;;;6.10;99.90;5.30;100793.00;;;;4907505;28;94364;-66
2024/02/28 04:40:29;;;;;;;10.67;6.10;;;5.60;99.90;5.30;100785.00;;;;4908013;28;122536;-66
2024/02/28 04:42:55;;;;;;;9.60;6.17;;;5.50;99.90;5.30;100802.00;;;;4903438;28;109847;-66
2024/02/28 04:45:20;;;;;;;10.23;5.87;;;6.20;99.90;5.30;100798.00;;;;4909274;28;109128;-66
2024/02/28 04:47:46;;;;;;;13.50;6.50;;;6.30;99.90;5.30;100803.00;;;;4907388;28;122280;-66
2024/02/28 04:50:12;;;;;;;12.20;6.93;;;5.40;99.90;5.30;100803.00;;;;4909444;28;122909;-66
2024/02/28 04:52:37;;;;;;;14.53;7.30;;;6.10;99.90;5.30;100800.00;;;;4911918;28;92627;-66
2024/02/28 04:55:04;;;;;;;11.63;7.60;;;5.50;99.90;5.30;100802.00;;;;4912539;28;107266;-65
2024/02/28 04:57:29;;;;;;;11.70;7.67;;;5.50;99.90;5.30;100806.00;;;;4910541;28;113008;-65
2024/02/28 04:59:55;;;;;;;15.30;7.90;;;5.40;99.90;5.20;100815.00;;;;4918154;28;122192;-65
2024/02/28 05:02:25;;;;;;;18.63;7.43;;;5.40;99.90;5.20;100804.00;;;;4914650;28;93533;-66
2024/02/28 05:04:51;;;;;;;10.57;5.90;;;5.40;99.90;5.20;100813.00;;;;4913345;28;92699;-65
2024/02/28 05:07:17;;;;;;;13.83;9.03;;;5.40;99.90;5.20;100812.00;;;;4909814;28;95800;-66
2024/02/28 05:09:43;;;;;;;11.40;7.77;;;5.40;99.90;5.20;100822.00;;;;4913503;28;122900;-66
2024/02/28 05:12:08;;;;;;;14.50;8.30;;;5.50;99.90;5.10;100816.00;;;;4913548;28;110181;-66
2024/02/28 05:14:34;;;;;;;13.17;7.33;;;5.40;99.90;5.10;100824.00;;;;4911213;28;93136;-66
2024/02/28 05:17:00;;;;;;;13.93;9.20;;;5.40;99.90;5.10;100828.00;;;;4911747;28;122610;-65
2024/02/28 05:19:26;;;;;;;12.63;7.83;;;5.40;99.90;5.10;100835.00;;;;4916071;28;113198;-65
2024/02/28 05:21:51;;;;;;;16.17;9.10;;;5.30;99.90;5.10;100829.00;;;;4907613;28;110540;-65
2024/02/28 05:24:17;;;;;;;19.37;9.33;;;5.30;99.90;5.10;100844.00;;;;4910385;28;108839;-65
2024/02/28 05:26:43;;;;;;;19.83;8.93;;;5.20;99.90;5.10;100839.00;;;;4914095;28;93329;-64
2024/02/28 05:29:09;;;;;;;19.23;9.03;;;6.20;99.90;5.10;100835.00;;;;4909796;28;122955;-65
2024/02/28 05:31:36;;;;;;;15.67;9.70;;;5.20;99.90;5.10;100835.00;;;;4910432;28;100819;-65
2024/02/28 05:34:02;;;;;;;11.73;8.03;;;5.40;99.90;5.10;100836.00;;;;4912512;28;93242;-65
2024/02/28 05:36:30;;;;;;;12.90;9.07;;;5.80;99.90;5.10;100836.00;;;;4907946;28;122235;-65
2024/02/28 05:38:57;;;;;;;13.93;7.97;;;5.30;99.90;5.10;100834.00;;;;4911859;28;92935;-65
2024/02/28 05:41:24;;;;;;;17.30;9.40;;;5.20;99.90;5.10;100838.00;;;;4916176;28;92888;-66
2024/02/28 05:43:50;;;;;;;11.63;8.07;;;5.20;99.90;5.10;100831.00;;;;4909856;28;94081;-66
2024/02/28 05:46:18;;;;;;;16.43;9.27;;;5.20;99.90;5.10;100844.00;;;;4911343;28;94517;-66
2024/02/28 05:48:44;;;;;;;14.27;8.70;;;5.30;99.90;5.00;100831.00;;;;4911809;28;92919;-66
2024/02/28 05:51:11;;;;;;;12.93;8.03;;;5.20;99.90;5.00;100833.00;;;;4909434;28;92799;-66
2024/02/28 05:53:38;;;;;;;14.67;8.97;;;5.10;99.90;5.00;100853.00;;;;4910578;28;93266;-66
2024/02/28 05:56:04;;;;;;;24.00;8.83;;;5.10;99.90;5.00;100850.00;;;;4910386;28;93214;-67
2024/02/28 05:58:30;;;;;;;16.30;8.20;;;5.20;99.90;4.90;100851.00;;;;4908613;28;93345;-66
2024/02/28 06:00:59;;;;;;;15.03;9.07;;;5.10;99.90;4.90;100853.00;;;;4913572;28;92452;-67
2024/02/28 06:03:25;;;;;;;15.17;7.93;;;5.50;99.90;4.90;100863.00;;;;4911572;28;99272;-67
2024/02/28 06:05:52;;;;;;;17.60;9.17;;;5.20;99.90;4.90;100853.00;;;;4913115;28;94012;-66
2024/02/28 06:08:17;;;;;;;18.93;8.50;;;5.00;99.90;4.90;100868.00;;;;4907432;28;93807;-66
2024/02/28 06:10:45;;;;;;;19.90;8.93;;;5.10;99.90;4.90;100871.00;;;;4908987;28;110144;-66
2024/02/28 06:13:11;;;;;;;14.13;8.97;;;5.90;99.90;4.90;100868.00;;;;4907234;28;93138;-66
2024/02/28 06:15:37;;;;;;;18.13;8.90;;;5.10;99.90;4.80;100878.00;;;;4912118;28;94237;-66
2024/02/28 06:18:02;;;;;;;15.10;7.70;;;4.90;99.90;4.80;100867.00;;;;4907764;28;123051;-67
2024/02/28 06:20:28;;;;;;;13.10;8.93;;;5.00;99.90;4.80;100876.00;;;;4906316;28;101400;-67
2024/02/28 06:22:54;;;;;;;14.90;8.67;;;5.00;99.90;4.80;100873.00;;;;4910676;28;102464;-66
2024/02/28 06:25:22;;;;;;;12.13;8.37;;;5.00;99.90;4.80;100881.00;;;;4906561;28;122139;-66
2024/02/28 06:27:48;;;;;;;10.30;7.50;;;4.90;99.90;4.80;100882.00;;;;4908385;28;93593;-66
2024/02/28 06:30:16;;;;;;;15.77;8.70;;;5.00;99.90;4.80;100889.00;;;;4909373;28;93351;-66
2024/02/28 06:32:42;;;;;;;16.70;8.83;;;5.00;99.90;4.70;100891.00;;;;4913916;28;93741;-66
2024/02/28 06:35:09;;;;;;;15.90;8.60;;;4.90;99.90;4.70;100894.00;;;;4904477;28;106969;-65
2024/02/28 06:37:35;;;;;;;13.23;7.63;;;4.90;99.90;4.70;100891.00;;;;4906137;28;107749;-66
2024/02/28 06:40:04;;;;;;;16.70;8.33;;;4.90;99.90;4.80;100907.00;;;;4909860;28;101178;-66
2024/02/28 06:42:30;;;;;;;15.47;8.20;;;4.90;99.90;4.80;100903.00;;;;4908761;28;92959;-65
2024/02/28 06:44:55;;;;;;;13.57;8.27;;;4.90;99.90;4.80;100909.00;;;;4908918;28;99133;-66
2024/02/28 06:47:21;;;;;;;10.67;7.37;;;5.10;99.90;4.80;100914.00;;;;4909912;28;122887;-66
2024/02/28 06:49:47;;;;;;;11.13;6.70;;;5.20;99.90;4.90;100909.00;;;;4910541;28;108949;-65
2024/02/28 06:52:14;;;;;;;18.40;7.50;;;5.30;99.90;4.90;100915.00;;;;4912088;28;109325;-66
2024/02/28 06:54:39;;;;;;;13.87;8.57;;;5.10;99.90;4.90;100917.00;;;;4910239;28;93298;-66
2024/02/28 06:57:05;;;;;;;15.87;8.57;;;5.10;99.90;4.90;100907.00;;;;4911854;28;123192;-66
2024/02/28 06:59:31;;;;;;;10.23;7.13;;;5.00;99.90;4.90;100918.00;;;;4906698;28;111357;-65
2024/02/28 07:01:57;;;;;;;13.50;6.90;;;5.00;99.90;4.90;100912.00;;;;4912175;28;92705;-66
2024/02/28 07:04:22;;;;;;;9.17;6.20;;;6.00;99.90;4.90;100921.00;;;;4914932;28;96169;-65
2024/02/28 07:06:48;;;;;;;11.50;6.77;;;5.00;99.90;4.90;100920.00;;;;4907449;28;120338;-65
2024/02/28 07:09:15;;;;;;;11.87;7.50;;;5.00;99.90;4.80;100922.00;;;;4913280;28;93168;-65
2024/02/28 07:11:40;;;;;;;12.50;6.17;;;5.00;99.90;4.80;100924.00;;;;4909174;28;93201;-65
2024/02/28 07:14:06;;;;;;;13.00;6.60;;;5.00;99.90;4.80;100929.00;;;;4910429;28;121746;-65
2024/02/28 07:16:33;;;;;;;11.00;7.50;;;4.90;99.90;4.80;100937.00;;;;4906532;28;99440;-66
2024/02/28 07:19:02;;;;;;;9.93;5.33;;;5.00;99.90;4.80;100933.00;;;;4906198;28;92935;-66
2024/02/28 07:21:30;;;;;;;9.40;7.23;;;4.90;99.90;4.80;100929.00;;;;4911037;28;100094;-66
2024/02/28 07:23:56;;;;;;;9.20;6.03;;;5.00;99.90;4.80;100933.00;;;;4910050;28;92808;-66
2024/02/28 07:26:21;;;;;;;11.53;7.23;;;5.90;99.90;4.80;100932.00;;;;4908357;28;93709;-66
2024/02/28 07:28:49;;;;;;;9.50;4.97;;;5.00;99.90;4.80;100934.00;;;;4907928;28;110755;-67
2024/02/28 07:31:19;;;;;;;6.33;4.43;;;5.10;99.90;4.80;100949.00;;;;4905373;28;92992;-67
2024/02/28 07:33:45;;;;;;;7.70;4.53;;;5.00;99.90;4.80;100941.00;;;;4907004;28;100226;-67
2024/02/28 07:36:11;;;;;;;11.67;5.13;;;6.00;99.90;4.90;100940.00;;;;4906384;28;93882;-66
2024/02/28 07:38:37;;;;;;;7.67;4.87;;;5.00;99.90;4.90;100935.00;;;;4910035;28;108108;-66
2024/02/28 07:41:03;;;;;;;6.97;4.10;;;5.00;99.90;4.90;100950.00;;;;4906860;28;109921;-66
2024/02/28 07:43:32;;;;;;;4.93;4.43;;;5.00;99.90;4.80;100955.00;;;;4904707;28;122256;-66
2024/02/28 07:45:58;;;;;;;7.47;4.63;;;5.80;99.90;4.90;100951.00;;;;4905406;28;93806;-66
2024/02/28 07:48:24;;;;;;;8.63;4.67;;;5.00;99.90;4.80;100947.00;;;;4905348;28;98684;-66
2024/02/28 07:50:50;;;;;;;5.97;4.20;;;5.00;99.90;4.90;100952.00;;;;4909945;28;103979;-66
2024/02/28 07:53:17;;;;;;;7.90;4.63;;;4.90;99.90;4.90;100955.00;;;;4910251;28;120433;-67
2024/02/28 07:55:43;;;;;;;6.90;5.07;;;5.00;99.90;4.90;100954.00;;;;4907035;28;122012;-66
2024/02/28 07:58:09;;;;;;;7.10;5.33;;;5.10;99.90;4.90;100956.00;;;;4908793;28;93292;-66
2024/02/28 08:00:35;;;;;;;9.00;6.13;;;5.10;99.90;5.00;100964.00;;;;4909837;28;93090;-66
2024/02/28 08:03:01;;;;;;;10.97;5.17;;;5.00;99.90;5.00;100957.00;;;;4909598;28;119732;-66
2024/02/28 08:05:27;;;;;;;6.63;4.37;;;5.10;99.90;5.00;100954.00;;;;4904751;28;112718;-67
2024/02/28 08:07:52;;;;;;;7.77;4.03;;;5.10;99.90;5.00;100958.00;;;;4904784;28;99598;-67
2024/02/28 08:10:18;;;;;;;5.33;4.07;;;6.00;99.90;5.00;100951.00;;;;4908195;28;94110;-68
2024/02/28 08:12:44;;;;;;;8.53;5.03;;;5.20;99.90;5.00;100954.00;;;;4906274;28;96478;-67
2024/02/28 08:15:10;;;;;;;6.40;5.07;;;6.10;99.90;5.00;100958.00;;;;4910575;28;121516;-66
2024/02/28 08:17:36;;;;;;;5.90;4.13;;;5.20;99.90;5.00;100959.00;;;;4907242;28;92952;-68
2024/02/28 08:20:04;;;;;;;5.73;4.37;;;5.20;99.90;5.00;100966.00;;;;4911931;28;92906;-67
2024/02/28 08:22:31;;;;;;;5.73;3.83;;;5.30;99.90;5.10;100970.00;;;;4906485;28;93646;-66
2024/02/28 08:24:57;;;;;;;8.93;3.93;;;6.00;99.90;5.10;100969.00;;;;4907826;28;96319;-67
2024/02/28 08:27:23;;;;;;;3.87;3.23;;;5.40;99.90;5.10;100982.00;;;;4904352;28;109728;-68
2024/02/28 08:29:49;;;;;;;4.80;3.13;;;5.20;99.90;5.10;100973.00;;;;4923738;28;92985;-67
2024/02/28 08:32:16;;;;;;;3.87;3.33;;;6.10;99.90;5.20;100972.00;;;;4906481;28;94086;-69
2024/02/28 08:34:46;;;;;;;3.53;2.97;;;5.30;99.90;5.20;100978.00;;;;4908151;28;104837;-68
2024/02/28 08:37:12;;;;;;;4.00;2.57;;;6.00;99.90;5.20;100992.00;;;;4903807;28;92879;-67
2024/02/28 08:39:38;;;;;;;4.57;3.13;;;5.30;99.90;5.30;100986.00;;;;4905906;28;93087;-68
2024/02/28 08:42:04;;;;;;;3.70;1.90;;;5.60;99.90;5.30;100988.00;;;;4907027;28;94239;-68
2024/02/28 08:44:30;;;;;;;2.83;2.23;;;5.40;99.90;5.30;100985.00;;;;4908024;28;94557;-68
2024/02/28 08:46:56;;;;;;;2.70;1.90;;;5.50;99.90;5.40;100985.00;;;;4902261;28;109637;-68
2024/02/28 08:49:22;;;;;;;3.60;2.13;;;6.30;99.90;5.40;100999.00;;;;4910881;28;109083;-68
2024/02/28 08:51:48;;;;;;;4.00;2.83;;;6.50;99.90;5.40;100996.00;;;;4906323;28;92918;-68
2024/02/28 08:54:14;;;;;;;4.13;2.83;;;5.60;99.90;5.40;100992.00;;;;4904029;28;121049;-68
2024/02/28 08:56:39;;;;;;;4.87;3.00;;;6.50;99.90;5.40;100995.00;;;;4906855;28;110463;-69
2024/02/28 08:59:05;;;;;;;3.70;2.90;;;6.50;99.90;5.40;100999.00;;;;4905863;28;108820;-70
2024/02/28 09:01:31;;;;;;;5.77;3.33;;;5.50;99.90;5.40;101006.00;;;;4909897;28;95663;-69
2024/02/28 09:03:56;;;;;;;5.60;3.00;;;6.30;99.90;5.40;100993.00;;;;4904384;28;113382;-68
2024/02/28 09:06:22;;;;;;;4.97;3.30;;;5.30;99.90;5.40;101000.00;;;;4906494;28;92848;-70
2024/02/28 09:08:47;;;;;;;3.10;2.23;;;5.50;99.90;5.30;101003.00;;;;4912169;28;105366;-69
2024/02/28 09:11:13;;;;;;;4.80;3.03;;;5.60;99.90;5.30;100998.00;;;;4905119;28;121691;-68
2024/02/28 09:13:39;;;;;;;4.70;3.20;;;6.20;99.90;5.30;101004.00;;;;4905786;28;93254;-69
2024/02/28 09:16:05;;;;;;;3.97;3.13;;;5.50;99.90;5.30;101006.00;;;;4908063;28;110705;-68
2024/02/28 09:18:30;;;;;;;6.37;3.40;;;5.40;99.90;5.30;101009.00;;;;4913464;28;92922;-68
2024/02/28 09:20:56;;;;;;;3.43;2.93;;;6.00;99.90;5.20;101011.00;;;;4907220;28;122953;-68
2024/02/28 09:23:22;;;;;;;4.93;3.00;;;6.20;99.90;5.20;101016.00;;;;4902515;28;120646;-68
2024/02/28 09:25:47;;;;;;;9.87;4.37;;;5.50;99.90;5.20;101019.00;;;;4908554;28;92945;-70
2024/02/28 09:28:15;;;;;;;3.77;2.60;;;6.20;99.90;5.20;101001.00;;;;4906548;28;92939;-70
2024/02/28 09:30:42;;;;;;;8.40;4.00;;;5.30;99.90;5.20;100996.00;;;;4905571;28;93587;-70
2024/02/28 09:33:08;;;;;;;4.97;2.87;;;5.40;99.90;5.20;101008.00;;;;4907403;28;93554;-69
2024/02/28 09:35:36;;;;;;;6.33;4.40;;;5.30;99.90;5.20;101020.00;;;;4910261;28;93263;-70
2024/02/28 09:38:02;;;;;;;3.93;2.87;;;5.70;99.90;5.20;101017.00;;;;4910020;28;92921;-69
2024/02/28 09:40:28;;;;;;;4.57;3.17;;;5.30;99.90;5.20;101022.00;;;;4903158;28;115065;-69
2024/02/28 09:43:11;;;;;;;5.67;2.93;;;5.40;99.90;5.10;101020.00;;;;4910023;28;113373;-69
2024/02/28 09:45:37;;;;;;;5.43;3.13;;;5.30;99.90;5.20;101021.00;;;;4907094;28;93166;-68
2024/02/28 09:48:04;;;;;;;3.17;2.63;;;5.30;99.90;5.20;101023.00;;;;4908160;28;107460;-71
2024/02/28 09:50:30;;;;;;;4.53;3.70;;;5.30;99.90;5.20;101013.00;;;;4914657;28;92818;-70
2024/02/28 09:52:56;;;;;;;4.77;3.20;;;5.30;99.90;5.20;101025.00;;;;4914840;28;123282;-70
2024/02/28 09:55:22;;;;;;;5.57;3.20;;;5.30;99.90;5.20;101021.00;;;;4913962;28;92901;-69
2024/02/28 09:57:49;;;;;;;5.00;3.50;;;5.40;99.90;5.30;101037.00;;;;4910420;28;108454;-69
2024/02/28 10:00:19;;;;;;;4.33;3.50;;;6.30;99.90;5.20;101025.00;;;;4910558;28;94168;-68
2024/02/28 10:02:47;;;;;;;5.03;2.67;;;5.40;99.90;5.20;101032.00;;;;4913806;28;93679;-70
2024/02/28 10:05:14;;;;;;;5.10;3.33;;;5.80;99.90;5.20;101041.00;;;;4913927;28;92210;-69
2024/02/28 10:07:40;;;;;;;6.27;4.13;;;5.30;99.90;5.20;101045.00;;;;4913179;28;95718;-68
2024/02/28 10:10:08;;;;;;;8.33;3.73;;;5.40;99.90;5.20;101055.00;;;;4911734;28;95171;-68
2024/02/28 10:12:34;;;;;;;9.10;4.30;;;5.30;99.90;5.20;101045.00;;;;4909413;28;96978;-68
2024/02/28 10:15:01;;;;;;;5.00;3.60;;;5.40;99.90;5.20;101050.00;;;;4913112;28;93029;-68
2024/02/28 10:17:26;;;;;;;5.83;3.67;;;5.30;99.90;5.20;101065.00;;;;4908129;28;94857;-67
2024/02/28 10:19:53;;;;;;;6.97;3.57;;;5.40;99.90;5.20;101064.00;;;;4907665;28;122241;-70
2024/02/28 10:22:18;;;;;;;5.17;3.53;;;5.40;99.90;5.20;101077.00;;;;4909902;28;93600;-69
2024/02/28 10:24:44;;;;;;;5.73;3.73;;;5.40;99.90;5.20;101070.00;;;;4912919;28;92810;-68
2024/02/28 10:27:10;;;;;;;8.47;3.13;;;5.10;99.90;5.10;101076.00;;;;4914758;28;104718;-68
2024/02/28 10:29:36;;;;;;;5.77;3.27;;;5.30;99.90;5.10;101081.00;;;;4910614;28;92588;-68
2024/02/28 10:32:05;;;;;;;5.70;3.73;;;5.20;99.90;5.10;101090.00;;;;4925503;28;93899;-68
2024/02/28 10:34:34;;;;;;;4.03;3.17;;;5.30;99.90;5.00;101087.00;;;;4909724;28;92874;-68
2024/02/28 10:37:01;;;;;;;4.67;3.80;;;5.10;99.90;5.00;101084.00;;;;4912896;28;94006;-68
2024/02/28 10:39:28;;;;;;;6.93;3.90;;;5.90;99.90;5.00;101086.00;;;;4895041;28;121856;-69
2024/02/28 10:41:55;;;;;;;6.87;4.30;;;5.20;99.90;5.00;101083.00;;;;4913091;28;96016;-67
2024/02/28 10:44:22;;;;;;;8.97;4.60;;;5.10;99.90;5.00;101076.00;;;;4912266;28;92991;-67
2024/02/28 10:46:51;;;;;;;7.47;4.37;;;5.20;99.90;5.00;101086.00;;;;4913455;28;93492;-67